Time;durP1;ratioP1;P1;durP2;ratioP2;P2;SDS_P1;SDS_P2;PMS_P1;PMS_P2;Temp;Humidity;BMP_temperature;BMP_pressure;BME280_temperature;BME280_humidity;BME280_pressure;Samples;Min_cycle;Max_cycle;Signal;HPM_P1;HPM_P2
2023/10/10 00:00:57;;;;;;;27.45;17.12;;;;;;;2.41;75.18;100712.61;1701157;84;25667;-64
2023/10/10 00:03:27;;;;;;;30.82;18.75;;;;;;;2.40;75.06;100710.98;1701120;84;25414;-62
2023/10/10 00:05:55;;;;;;;30.32;18.25;;;;;;;2.37;75.20;100710.16;1701171;84;27556;-63
2023/10/10 00:08:28;;;;;;;28.35;18.25;;;;;;;2.33;74.94;100711.15;1701096;84;25489;-64
2023/10/10 00:10:52;;;;;;;32.33;19.67;;;;;;;2.31;74.64;100709.25;1700949;83;25654;-63
2023/10/10 00:13:20;;;;;;;34.25;19.70;;;;;;;2.28;74.84;100704.39;1700484;84;25513;-63
2023/10/10 00:16:05;;;;;;;35.00;21.52;;;;;;;2.28;75.66;100698.26;1701214;84;25425;-63
2023/10/10 00:18:19;;;;;;;30.70;19.37;;;;;;;2.28;76.47;100700.92;1700426;83;28243;-63
2023/10/10 00:21:06;;;;;;;37.38;21.70;;;;;;;2.29;76.92;100702.02;1701036;84;25591;-63
2023/10/10 00:23:16;;;;;;;39.58;24.50;;;;;;;2.34;78.21;100704.77;1674549;84;25490;-63
2023/10/10 00:25:44;;;;;;;40.88;23.40;;;;;;;2.38;78.88;100704.58;1701149;84;25646;-64
2023/10/10 00:28:21;;;;;;;37.58;23.00;;;;;;;2.43;78.67;100703.83;1701256;84;25675;-64
2023/10/10 00:30:49;;;;;;;34.40;20.97;;;;;;;2.47;78.38;100712.16;1701244;84;27385;-63
2023/10/10 00:33:17;;;;;;;31.02;20.40;;;;;;;2.50;78.50;100718.34;1701113;84;25715;-63
2023/10/10 00:35:44;;;;;;;30.52;18.65;;;;;;;2.49;78.18;100710.88;1701150;84;25425;-63
2023/10/10 00:38:17;;;;;;;32.95;19.77;;;;;;;2.49;77.67;100717.55;1701136;84;26040;-63
2023/10/10 00:40:40;;;;;;;30.17;18.55;;;;;;;2.46;77.22;100716.70;1701114;84;25666;-63
2023/10/10 00:43:21;;;;;;;30.45;19.05;;;;;;;2.43;76.95;100706.50;1701177;84;27546;-63
2023/10/10 00:45:52;;;;;;;27.82;17.50;;;;;;;2.37;76.70;100712.83;1701270;84;25425;-63
2023/10/10 00:48:16;;;;;;;30.32;17.40;;;;;;;2.32;76.63;100707.41;1676945;84;25509;-64
2023/10/10 00:50:44;;;;;;;29.90;18.45;;;;;;;2.29;76.38;100709.23;1701096;84;26575;-63
2023/10/10 00:53:12;;;;;;;29.42;18.12;;;;;;;2.25;75.86;100708.91;1701188;84;25433;-63
2023/10/10 00:55:39;;;;;;;28.73;18.85;;;;;;;2.21;75.86;100706.42;1701087;84;28244;-64
2023/10/10 00:58:08;;;;;;;34.50;19.70;;;;;;;2.17;75.89;100703.44;1701050;84;25843;-64
2023/10/10 01:00:39;;;;;;;31.73;18.77;;;;;;;2.13;76.16;100700.16;1701388;84;25606;-64
2023/10/10 01:03:19;;;;;;;29.05;20.85;;;;;;;2.09;76.19;100707.84;1701044;84;25937;-64
2023/10/10 01:05:42;;;;;;;29.90;20.15;;;;;;;2.05;76.12;100702.72;1701079;84;25435;-64
2023/10/10 01:08:01;;;;;;;30.62;18.67;;;;;;;2.00;76.13;100699.96;1701299;84;27473;-65
2023/10/10 01:10:31;;;;;;;31.68;19.05;;;;;;;1.96;76.03;100702.30;1701077;84;25640;-65
2023/10/10 01:12:56;;;;;;;30.95;18.52;;;;;;;1.92;76.00;100699.81;1701110;84;25648;-65
2023/10/10 01:15:34;;;;;;;28.10;18.32;;;;;;;1.88;76.08;100698.70;1701725;84;25497;-64
2023/10/10 01:17:54;;;;;;;30.20;19.00;;;;;;;1.83;75.85;100690.07;1702749;84;25475;-65
2023/10/10 01:23:07;;;;;;;31.20;20.88;;;;;;;1.76;75.84;100698.76;1658269;86;25507;-64
2023/10/10 01:28:03;;;;;;;35.80;20.05;;;;;;;1.70;76.17;100693.04;1658149;85;25693;-64
2023/10/10 01:33:16;;;;;;;32.78;19.62;;;;;;;1.65;76.23;100692.45;1657999;86;27493;-63
2023/10/10 01:35:44;;;;;;;37.33;20.88;;;;;;;1.62;76.22;100698.78;1658108;86;25720;-63
2023/10/10 01:38:52;;;;;;;33.60;19.85;;;;;;;1.58;76.21;100697.09;1658178;86;25621;-63
2023/10/10 01:41:24;;;;;;;;;;;;;;;1.55;76.26;100694.93;1660635;86;25671;-63
2023/10/10 01:43:53;;;;;;;27.55;17.27;;;;;;;1.52;76.55;100694.59;1658241;86;25531;-63
2023/10/10 01:46:34;;;;;;;29.60;17.15;;;;;;;1.47;76.21;100695.30;1658261;86;27468;-64
2023/10/10 01:48:58;;;;;;;33.02;19.35;;;;;;;1.45;76.29;100690.20;1657633;86;25773;-64
2023/10/10 01:51:24;;;;;;;29.92;19.98;;;;;;;1.44;76.54;100690.45;1658161;86;25613;-64
2023/10/10 01:53:55;;;;;;;33.65;21.07;;;;;;;1.42;76.62;100699.21;1658119;86;26523;-64
2023/10/10 01:56:23;;;;;;;35.38;20.65;;;;;;;1.38;76.70;100698.88;1658102;86;25602;-64
2023/10/10 01:58:53;;;;;;;38.65;21.48;;;;;;;1.36;76.60;100700.95;1660039;84;27468;-63
2023/10/10 02:01:23;;;;;;;35.70;20.62;;;;;;;1.32;76.45;100703.02;1701020;84;25570;-63
2023/10/10 02:03:50;;;;;;;32.00;20.32;;;;;;;1.29;76.61;100704.28;1681764;85;30907;-63
2023/10/10 02:06:28;;;;;;;31.30;20.37;;;;;;;1.27;76.71;100707.18;1652599;86;25600;-63
2023/10/10 02:11:49;;;;;;;36.05;20.70;;;;;;;1.24;76.82;100706.34;1681704;85;27362;-64
2023/10/10 02:14:11;;;;;;;35.60;21.77;;;;;;;1.22;76.86;100715.61;1652450;86;25789;-64
2023/10/10 02:16:40;;;;;;;39.45;22.15;;;;;;;1.19;76.66;100714.74;1701191;84;25591;-64
2023/10/10 02:19:16;;;;;;;35.68;21.50;;;;;;;1.16;76.52;100715.20;1681607;85;25503;-64
2023/10/10 02:21:47;;;;;;;36.35;21.30;;;;;;;1.14;76.49;100713.31;1652690;86;25485;-63
2023/10/10 02:26:57;;;;;;;37.28;21.70;;;;;;;1.09;76.55;100722.00;1681619;85;26073;-63
2023/10/10 02:32:12;;;;;;;34.15;21.15;;;;;;;1.04;76.20;100723.23;1681674;85;25542;-62
2023/10/10 02:35:01;;;;;;;38.70;21.87;;;;;;;1.00;75.90;100721.55;1681820;85;25629;-63
2023/10/10 02:37:41;;;;;;;33.05;22.25;;;;;;;0.97;75.87;100726.05;1652407;86;27426;-63
2023/10/10 02:39:48;;;;;;;34.33;21.97;;;;;;;0.94;75.55;100719.84;1697444;84;25579;-64
2023/10/10 02:42:13;;;;;;;34.23;22.00;;;;;;;0.91;75.73;100726.44;1681616;85;25702;-63
2023/10/10 02:44:46;;;;;;;33.10;20.50;;;;;;;0.88;75.79;100724.77;1701261;84;25507;-63
2023/10/10 02:47:06;;;;;;;37.65;22.20;;;;;;;0.85;75.53;100730.05;1701040;84;25503;-64
2023/10/10 02:49:37;;;;;;;36.13;21.90;;;;;;;0.81;75.54;100728.88;1681684;84;27527;-64
2023/10/10 02:52:06;;;;;;;37.20;22.02;;;;;;;0.78;75.56;100733.34;1681534;84;25589;-63
2023/10/10 02:54:43;;;;;;;34.43;20.72;;;;;;;0.76;75.49;100734.63;1680902;85;25464;-63
2023/10/10 02:59:59;;;;;;;39.38;23.05;;;;;;;0.67;75.64;100730.17;1645346;87;25420;-63
2023/10/10 03:02:40;;;;;;;35.58;22.00;;;;;;;0.64;75.60;100728.77;1671095;85;27028;-64
2023/10/10 03:07:30;;;;;;;35.92;21.80;;;;;;;0.55;75.33;100726.19;1672002;85;25608;-63
2023/10/10 03:10:21;;;;;;;38.13;22.45;;;;;;;0.51;75.33;100729.00;1645226;87;25657;-64
2023/10/10 03:12:29;;;;;;;36.88;23.32;;;;;;;0.48;75.32;100729.48;1668053;85;25574;-64
2023/10/10 03:15:12;;;;;;;42.70;24.00;;;;;;;0.43;75.34;100732.03;1645365;87;28567;-64
2023/10/10 03:17:43;;;;;;;40.28;23.07;;;;;;;0.39;75.35;100730.85;1669237;85;25656;-64
2023/10/10 03:20:23;;;;;;;38.08;23.65;;;;;;;0.35;75.72;100728.64;1671923;85;25476;-64
2023/10/10 03:25:36;;;;;;;39.35;24.07;;;;;;;0.28;75.59;100734.60;1645477;87;25471;-62
2023/10/10 03:28:05;;;;;;;39.03;24.00;;;;;;;0.25;75.86;100733.72;1670184;85;28072;-63
2023/10/10 03:33:16;;;;;;;40.03;24.92;;;;;;;0.22;76.00;100732.05;1642404;87;25496;-64
2023/10/10 03:38:44;;;;;;;42.05;24.23;;;;;;;0.16;75.99;100729.79;1642450;87;25793;-65
2023/10/10 05:25:23;;;;;;;71.37;37.58;;;;;;;0.06;78.68;100819.45;1703876;84;25656;-61
2023/10/10 05:27:51;;;;;;;56.15;29.27;;;;;;;0.11;78.78;100833.41;1705052;84;25744;-61
2023/10/10 05:30:25;;;;;;;69.95;36.77;;;;;;;0.12;78.98;100829.20;1705954;84;27485;-61
2023/10/10 05:33:03;;;;;;;77.50;37.73;;;;;;;0.15;79.17;100827.92;1705912;84;25388;-61
2023/10/10 05:35:34;;;;;;;73.07;37.65;;;;;;;0.19;79.19;100825.12;1705974;84;25437;-61
2023/10/10 05:38:01;;;;;;;77.97;40.48;;;;;;;0.22;79.23;100827.83;1705931;84;25617;-62
2023/10/10 05:40:33;;;;;;;76.07;37.65;;;;;;;0.25;79.37;100832.17;1705962;84;25458;-62
2023/10/10 05:42:57;;;;;;;75.92;36.88;;;;;;;0.29;79.44;100831.20;1705485;84;27552;-61
2023/10/10 05:45:24;;;;;;;72.87;35.50;;;;;;;0.28;79.46;100834.92;1705820;84;25725;-62
2023/10/10 05:47:53;;;;;;;74.82;37.93;;;;;;;0.30;79.63;100836.83;1682158;84;25557;-62
2023/10/10 05:50:21;;;;;;;70.65;36.65;;;;;;;0.31;79.82;100833.14;1705878;84;25788;-62
2023/10/10 05:52:48;;;;;;;73.22;38.30;;;;;;;0.35;80.15;100842.28;1705315;84;25396;-62
2023/10/10 05:55:17;;;;;;;70.03;35.90;;;;;;;0.38;80.28;100840.50;1705975;84;27819;-61
2023/10/10 05:57:43;;;;;;;67.30;37.63;;;;;;;0.44;80.58;100842.23;1677287;84;25398;-62
2023/10/10 06:00:13;;;;;;;72.65;36.33;;;;;;;0.50;80.74;100837.87;1671970;85;25556;-61
2023/10/10 06:02:49;;;;;;;67.67;35.52;;;;;;;0.55;80.90;100849.97;1645281;87;25595;-62
2023/10/10 06:05:16;;;;;;;71.77;36.42;;;;;;;0.66;81.52;100839.05;1670598;85;25565;-61
2023/10/10 06:07:44;;;;;;;65.97;35.65;;;;;;;0.78;81.88;100839.06;1669051;86;28309;-61
2023/10/10 06:10:16;;;;;;;82.20;35.95;;;;;;;0.87;81.87;100845.66;1645174;87;25930;-61
2023/10/10 06:12:47;;;;;;;72.00;36.73;;;;;;;0.97;81.95;100849.92;1671888;85;25637;-60
2023/10/10 06:15:17;;;;;;;68.95;35.08;;;;;;;1.02;81.70;100843.87;1645382;87;25647;-60
2023/10/10 06:17:46;;;;;;;64.58;36.80;;;;;;;1.11;82.15;100851.83;1672057;85;25567;-60
2023/10/10 06:20:16;;;;;;;70.80;37.63;;;;;;;1.22;82.27;100852.33;1645549;87;27492;-61
2023/10/10 06:22:47;;;;;;;65.97;36.45;;;;;;;1.35;82.79;100853.14;1671820;85;25640;-60
2023/10/10 06:25:18;;;;;;;68.10;38.73;;;;;;;1.52;83.41;100853.24;1645339;87;25615;-61
2023/10/10 06:27:54;;;;;;;62.98;37.67;;;;;;;1.68;83.59;100854.63;1671866;85;25509;-61
2023/10/10 06:30:17;;;;;;;68.30;35.92;;;;;;;1.88;84.20;100858.77;1645181;87;25487;-61
2023/10/10 06:32:49;;;;;;;67.78;36.50;;;;;;;2.04;83.77;100862.53;1671858;85;27858;-61
2023/10/10 06:37:51;;;;;;;65.25;38.25;;;;;;;2.19;83.26;100867.34;1671728;85;25781;-62
2023/10/10 06:40:28;;;;;;;69.87;36.75;;;;;;;2.30;83.07;100879.02;1671843;85;25623;-61
2023/10/10 06:42:56;;;;;;;70.85;37.10;;;;;;;2.45;83.15;100865.94;1645424;87;25658;-62
2023/10/10 06:45:34;;;;;;;65.35;36.38;;;;;;;2.57;83.27;100878.72;1671856;85;27521;-62
2023/10/10 06:47:55;;;;;;;66.37;35.30;;;;;;;2.71;83.80;100873.08;1645037;86;26010;-61
2023/10/10 06:50:21;;;;;;;65.52;38.05;;;;;;;2.92;84.28;100874.20;1671862;85;25470;-61
2023/10/10 06:52:54;;;;;;;64.90;35.52;;;;;;;3.08;83.70;100885.92;1671802;85;25726;-62
2023/10/10 06:55:23;;;;;;;63.95;36.73;;;;;;;3.26;84.52;100880.86;1645339;87;25435;-61
2023/10/10 06:58:01;;;;;;;68.43;36.20;;;;;;;3.42;84.47;100885.88;1688353;84;27391;-63
2023/10/10 07:00:42;;;;;;;63.83;35.97;;;;;;;3.55;83.92;100887.67;1694530;84;26096;-62
2023/10/10 07:03:30;;;;;;;57.08;33.25;;;;;;;3.71;83.81;100895.89;1694313;84;25456;-61
2023/10/10 07:05:48;;;;;;;55.88;34.20;;;;;;;3.83;83.44;100895.77;1694393;84;25609;-61
2023/10/10 07:08:24;;;;;;;54.85;32.98;;;;;;;3.92;83.26;100900.98;1694435;84;25605;-61
2023/10/10 07:10:48;;;;;;;56.02;32.70;;;;;;;4.00;82.82;100903.74;1694387;84;27756;-61
2023/10/10 07:13:18;;;;;;;57.43;33.88;;;;;;;4.17;84.54;100902.33;1694192;84;25619;-61
2023/10/10 07:15:43;;;;;;;50.17;32.05;;;;;;;4.34;83.74;100903.58;1694287;84;25580;-61
2023/10/10 07:18:22;;;;;;;55.30;34.60;;;;;;;4.45;83.45;100906.11;1694252;84;25953;-61
2023/10/10 07:21:04;;;;;;;54.98;32.80;;;;;;;4.67;84.31;100910.61;1694364;83;25479;-61
2023/10/10 07:23:37;;;;;;;50.60;31.15;;;;;;;5.07;84.96;100904.50;1694381;84;28586;-62
2023/10/10 07:26:18;;;;;;;52.33;33.42;;;;;;;5.55;84.44;100906.68;1694265;84;25635;-62
2023/10/10 07:28:47;;;;;;;52.88;33.08;;;;;;;5.85;84.09;100916.77;1694344;84;25592;-62
2023/10/10 07:31:07;;;;;;;53.15;32.78;;;;;;;6.15;83.29;100905.91;1694173;84;25936;-62
2023/10/10 07:33:40;;;;;;;52.27;32.23;;;;;;;6.68;85.18;100915.95;1694345;84;25431;-61
2023/10/10 07:36:12;;;;;;;49.25;30.25;;;;;;;7.07;83.96;100912.73;1694266;84;27642;-62
2023/10/10 07:38:35;;;;;;;43.83;29.65;;;;;;;7.38;81.85;100914.59;1666236;86;26015;-62
2023/10/10 07:41:04;;;;;;;45.58;28.77;;;;;;;7.52;80.66;100912.14;1666263;86;25687;-61
2023/10/10 07:43:34;;;;;;;46.50;29.87;;;;;;;7.64;79.83;100911.30;1666205;86;26044;-62
2023/10/10 07:46:22;;;;;;;49.67;29.70;;;;;;;8.00;82.79;100912.50;1666270;86;25664;-62
2023/10/10 07:51:09;;;;;;;43.92;28.85;;;;;;;9.14;81.92;100913.39;1666344;86;29624;-63
2023/10/10 07:53:44;;;;;;;38.53;27.20;;;;;;;9.54;79.07;100914.89;1666286;86;25430;-60
2023/10/10 07:56:10;;;;;;;43.08;28.30;;;;;;;9.93;79.45;100910.94;1666224;86;25590;-60
2023/10/10 07:58:56;;;;;;;38.85;27.35;;;;;;;10.48;79.17;100915.93;1666219;86;25524;-61
2023/10/10 08:01:20;;;;;;;39.00;26.20;;;;;;;11.06;78.73;100919.61;1666476;86;27235;-60
2023/10/10 08:03:48;;;;;;;39.63;24.47;;;;;;;11.75;77.83;100913.49;1644985;86;25507;-61
2023/10/10 08:06:22;;;;;;;33.53;23.60;;;;;;;12.28;76.32;100907.52;1666406;86;25508;-59
2023/10/10 08:11:40;;;;;;;31.02;22.50;;;;;;;13.21;72.34;100919.70;1666482;86;25569;-58
2023/10/10 08:14:08;;;;;;;33.90;21.73;;;;;;;13.55;71.61;100917.48;1666352;86;27340;-58
2023/10/10 08:16:40;;;;;;;27.67;20.62;;;;;;;14.05;69.98;100916.38;1666292;86;25418;-59
2023/10/10 08:19:15;;;;;;;25.82;19.87;;;;;;;14.42;69.46;100910.89;1666488;86;25621;-58
2023/10/10 08:21:49;;;;;;;26.40;19.67;;;;;;;14.73;68.01;100916.76;1666319;86;25519;-59
2023/10/10 08:24:12;;;;;;;23.62;18.50;;;;;;;15.27;67.56;100913.05;1665306;86;25493;-60
2023/10/10 08:26:39;;;;;;;23.85;17.55;;;;;;;15.75;65.72;100910.27;1666331;86;27462;-60
2023/10/10 08:29:14;;;;;;;23.32;17.25;;;;;;;15.78;62.37;100909.10;1666184;86;25888;-60
2023/10/10 08:31:42;;;;;;;25.65;16.35;;;;;;;15.96;63.08;100898.88;1666458;86;25435;-61
2023/10/10 08:34:13;;;;;;;24.80;17.60;;;;;;;16.34;62.28;100902.63;1666420;86;25989;-59
2023/10/10 08:36:43;;;;;;;24.43;16.90;;;;;;;16.72;61.59;100901.11;1666362;86;25235;-59
2023/10/10 08:41:46;;;;;;;21.27;15.18;;;;;;;17.32;59.50;100895.37;1645380;86;25526;-64
2023/10/10 08:44:19;;;;;;;21.30;15.48;;;;;;;17.69;58.31;100890.71;1666265;86;25408;-64
2023/10/10 08:46:48;;;;;;;25.15;19.12;;;;;;;18.13;58.48;100896.16;1666393;86;25632;-63
2023/10/10 08:49:19;;;;;;;18.92;14.47;;;;;;;18.59;56.37;100890.66;1666409;86;25664;-63
2023/10/10 08:51:46;;;;;;;19.15;13.68;;;;;;;18.92;55.57;100889.61;1666342;86;26807;-63
2023/10/10 08:54:15;;;;;;;16.95;13.68;;;;;;;19.28;55.26;100889.73;1666314;86;25478;-63
2023/10/10 08:59:17;;;;;;;14.85;12.73;;;;;;;20.07;52.32;100893.75;1577158;91;25799;-60
2023/10/10 09:01:43;;;;;;;19.05;12.10;;;;;;;20.05;50.88;100889.79;1577248;89;25805;-62
2023/10/10 09:04:18;;;;;;;15.40;12.43;;;;;;;19.89;49.94;100885.72;1577232;91;28408;-59
2023/10/10 09:06:45;;;;;;;16.10;12.80;;;;;;;20.21;50.34;100884.23;1577198;91;25848;-62
2023/10/10 09:11:53;;;;;;;14.23;9.80;;;;;;;20.68;47.83;100881.88;1585966;90;25705;-60
2023/10/10 09:14:19;;;;;;;11.65;8.73;;;;;;;20.48;46.90;100883.25;1586013;90;25690;-60
2023/10/10 09:16:45;;;;;;;12.40;9.50;;;;;;;20.61;46.92;100885.25;1586038;90;27940;-61
2023/10/10 09:19:14;;;;;;;12.73;9.88;;;;;;;20.48;46.33;100886.00;1585920;90;25571;-60
2023/10/10 09:21:55;;;;;;;15.48;10.00;;;;;;;20.37;46.21;100890.47;1584722;90;25854;-60
2023/10/10 09:24:28;;;;;;;10.70;8.88;;;;;;;20.46;45.75;100888.29;1585765;90;25718;-60
2023/10/10 09:26:59;;;;;;;14.53;9.60;;;;;;;20.51;44.13;100891.33;1586114;90;25710;-62
2023/10/10 09:29:34;;;;;;;12.37;8.88;;;;;;;20.51;44.83;100886.62;1585913;90;27917;-62
2023/10/10 09:32:05;;;;;;;13.60;9.15;;;;;;;20.31;43.75;100889.16;1585947;90;25688;-61
2023/10/10 09:34:40;;;;;;;13.18;7.58;;;;;;;19.93;43.93;100890.70;1585460;90;25651;-54
2023/10/10 09:37:07;;;;;;;10.90;7.90;;;;;;;20.10;44.41;100895.00;1601840;88;25786;-60
2023/10/10 09:39:36;;;;;;;10.23;7.00;;;;;;;20.29;43.92;100892.84;1596193;88;25734;-58
2023/10/10 09:45:18;;;;;;;9.30;6.67;;;;;;;20.10;43.38;100887.55;1596525;89;25599;-59
2023/10/10 09:52:59;;;;;;;10.38;6.90;;;;;;;21.53;42.84;100886.52;1668785;86;25483;-57
2023/10/10 10:09:02;;;;;;;8.13;6.17;;;;;;;18.06;40.80;100883.83;1668763;86;27428;-59
2023/10/10 10:11:33;;;;;;;8.70;6.67;;;;;;;17.82;44.01;100879.75;1668881;85;25557;-59
2023/10/10 10:14:14;;;;;;;8.75;6.37;;;;;;;18.66;44.08;100874.41;1652122;86;25631;-59
2023/10/10 10:16:49;;;;;;;6.62;5.92;;;;;;;19.64;43.75;100870.81;1652089;86;26119;-59
2023/10/10 10:19:17;;;;;;;8.88;5.20;;;;;;;19.75;41.89;100872.45;1652174;86;25516;-60
2023/10/10 10:22:05;;;;;;;7.92;5.85;;;;;;;19.48;41.20;100871.39;1652068;86;27351;-60
2023/10/10 10:24:44;;;;;;;8.55;5.20;;;;;;;19.03;41.04;100861.09;1651394;86;25649;-60
2023/10/10 10:27:39;;;;;;;7.03;5.85;;;;;;;18.43;40.27;100859.09;1649367;85;25554;-61
2023/10/10 10:32:54;;;;;;;12.45;8.13;;;;;;;17.91;42.81;100857.18;1652190;86;25518;-59
2023/10/10 10:35:56;;;;;;;9.30;6.20;;;;;;;17.69;41.56;100863.36;1652079;86;28546;-58
2023/10/10 10:38:24;;;;;;;10.53;5.90;;;;;;;17.14;41.64;100855.91;1650056;86;25834;-59
2023/10/10 10:41:04;;;;;;;8.38;6.20;;;;;;;16.62;42.21;100860.56;1652149;86;25478;-59
2023/10/10 10:43:31;;;;;;;8.70;6.10;;;;;;;16.31;42.82;100856.88;1651932;86;26064;-58
2023/10/10 10:45:53;;;;;;;9.43;5.30;;;;;;;16.11;43.23;100860.66;1652033;86;25605;-57
2023/10/10 10:48:34;;;;;;;6.35;5.62;;;;;;;15.96;44.00;100863.41;1652118;86;27830;-57
2023/10/10 10:51:40;;;;;;;8.60;5.62;;;;;;;15.89;44.34;100860.98;1652222;86;25569;-58
2023/10/10 10:53:59;;;;;;;8.53;5.80;;;;;;;16.11;45.33;100859.88;1649462;84;25640;-57
2023/10/10 10:59:12;;;;;;;8.88;5.53;;;;;;;16.11;44.23;100857.94;1653475;86;25595;-61
2023/10/10 11:01:55;;;;;;;8.30;5.90;;;;;;;15.96;44.06;100855.22;1654496;86;27980;-61
2023/10/10 11:04:48;;;;;;;9.58;6.12;;;;;;;15.89;45.13;100858.26;1654375;84;25411;-59
2023/10/10 11:07:00;;;;;;;5.75;4.80;;;;;;;16.70;46.90;100850.13;1646557;86;25659;-60
2023/10/10 11:09:36;;;;;;;6.45;4.33;;;;;;;17.90;46.00;100842.71;1654433;85;25598;-62
2023/10/10 11:12:08;;;;;;;6.85;4.25;;;;;;;18.93;44.46;100856.92;1654651;86;25592;-63
2023/10/10 11:14:44;;;;;;;8.45;4.42;;;;;;;19.53;41.67;100850.55;1654515;86;27379;-61
2023/10/10 11:17:17;;;;;;;5.78;4.15;;;;;;;19.53;40.19;100839.57;1654207;86;25996;-60
2023/10/10 11:19:41;;;;;;;7.97;4.22;;;;;;;19.16;39.80;100843.42;1654411;86;25505;-62
2023/10/10 11:22:38;;;;;;;5.90;3.83;;;;;;;18.60;39.26;100834.70;1654584;86;25685;-60
2023/10/10 11:24:46;;;;;;;8.00;4.10;;;;;;;18.05;39.50;100837.67;1653776;86;25489;-59
2023/10/10 11:29:44;;;;;;;5.62;3.95;;;;;;;17.66;42.29;100832.58;1654488;86;25460;-60
2023/10/10 11:32:29;;;;;;;5.30;4.28;;;;;;;18.22;42.22;100827.02;1654459;86;25610;-57
2023/10/10 11:37:59;;;;;;;5.75;4.30;;;;;;;20.10;42.70;100821.64;1654683;86;25421;-54
2023/10/10 11:42:50;;;;;;;9.75;3.47;;;;;;;21.44;38.56;100820.11;1654513;86;25583;-56
2023/10/10 11:45:19;;;;;;;6.08;4.17;;;;;;;21.56;37.40;100824.64;1654549;86;25660;-57
2023/10/10 11:47:51;;;;;;;4.35;3.20;;;;;;;21.60;37.36;100822.72;1654494;86;25282;-59
2023/10/10 11:50:29;;;;;;;3.72;3.30;;;;;;;21.77;37.19;100825.52;1654856;86;25601;-61
2023/10/10 11:53:01;;;;;;;7.30;3.72;;;;;;;22.08;36.69;100816.66;1654661;86;28297;-60
2023/10/10 11:55:29;;;;;;;5.33;3.30;;;;;;;22.59;37.14;100816.67;1654479;86;26120;-61
2023/10/10 11:58:06;;;;;;;86.67;77.37;;;;;;;23.02;35.78;100818.47;1631923;86;25662;-61
2023/10/10 12:01:05;;;;;;;5.20;3.70;;;;;;;22.75;34.77;100821.38;1652155;86;25715;-59
2023/10/10 12:03:05;;;;;;;4.87;3.27;;;;;;;21.99;34.26;100822.47;1632705;85;25496;-62
2023/10/10 12:08:05;;;;;;;4.87;2.75;;;;;;;20.60;34.67;100814.98;1651931;86;25726;-62
2023/10/10 12:13:19;;;;;;;5.90;2.95;;;;;;;19.46;35.71;100817.47;1652184;86;25421;-62
2023/10/10 12:15:41;;;;;;;4.83;2.60;;;;;;;19.03;36.30;100818.05;1651173;86;25655;-61
2023/10/10 12:18:11;;;;;;;3.85;2.83;;;;;;;18.65;37.17;100808.42;1652122;85;28324;-61
2023/10/10 12:20:44;;;;;;;3.77;2.62;;;;;;;18.75;37.74;100803.59;1652174;86;25584;-59
2023/10/10 12:23:17;;;;;;;6.05;3.12;;;;;;;18.67;37.64;100803.97;1652186;86;25203;-60
2023/10/10 12:25:45;;;;;;;4.25;2.70;;;;;;;18.50;37.82;100802.34;1652153;86;25459;-61
2023/10/10 12:28:14;;;;;;;6.10;3.00;;;;;;;18.41;38.76;100801.13;1652276;86;25579;-62
2023/10/10 12:30:45;;;;;;;4.45;3.37;;;;;;;18.60;39.79;100801.83;1652198;86;27212;-62
2023/10/10 12:33:19;;;;;;;6.75;3.47;;;;;;;19.35;39.69;100804.88;1650918;86;25550;-63
2023/10/10 12:35:48;;;;;;;3.17;2.75;;;;;;;20.09;39.25;100795.92;1652188;86;25469;-60
2023/10/10 12:38:23;;;;;;;2.98;2.52;;;;;;;20.74;38.51;100795.22;1652095;86;25853;-60
2023/10/10 12:40:54;;;;;;;3.27;2.60;;;;;;;21.11;36.87;100803.48;1652256;86;25639;-62
2023/10/10 12:43:24;;;;;;;4.15;2.50;;;;;;;20.61;35.42;100793.19;1652164;85;27208;-63
2023/10/10 12:45:54;;;;;;;3.25;2.90;;;;;;;20.09;35.20;100803.59;1652156;86;25596;-60
2023/10/10 12:48:24;;;;;;;2.85;2.42;;;;;;;19.47;35.14;100801.23;1652161;86;25555;-63
2023/10/10 12:50:54;;;;;;;3.70;2.25;;;;;;;19.03;35.64;100807.09;1652107;86;25637;-60
2023/10/10 12:53:22;;;;;;;4.85;2.65;;;;;;;18.83;36.76;100807.56;1652194;86;25610;-61
2023/10/10 12:56:01;;;;;;;5.53;2.50;;;;;;;19.35;37.54;100803.52;1652147;86;27340;-64
2023/10/10 12:58:24;;;;;;;4.72;3.22;;;;;;;20.02;37.96;100797.16;1649754;86;25478;-65
2023/10/10 13:00:56;;;;;;;6.83;2.67;;;;;;;20.56;36.78;100800.36;1653629;86;25390;-62
2023/10/10 13:03:30;;;;;;;3.55;2.33;;;;;;;21.07;36.60;100794.58;1653506;86;25619;-66
2023/10/10 13:06:03;;;;;;;3.17;2.20;;;;;;;21.55;36.00;100796.90;1649599;86;25437;-65
2023/10/10 13:08:38;;;;;;;2.77;2.30;;;;;;;21.33;34.86;100794.39;1653612;86;27872;-61
2023/10/10 13:11:15;;;;;;;3.62;2.35;;;;;;;21.06;34.07;100795.77;1653488;86;25712;-62
2023/10/10 13:13:48;;;;;;;3.65;2.70;;;;;;;20.47;33.99;100790.98;1653608;86;25519;-61
2023/10/10 13:16:37;;;;;;;3.90;2.42;;;;;;;19.81;34.24;100791.43;1653527;86;25644;-61
2023/10/10 13:18:57;;;;;;;2.83;2.20;;;;;;;19.11;34.52;100796.29;1650140;86;25926;-60
2023/10/10 13:21:27;;;;;;;2.80;2.27;;;;;;;18.41;35.10;100784.70;1653537;86;27349;-64
2023/10/10 13:23:54;;;;;;;3.87;2.25;;;;;;;17.78;35.73;100785.25;1652655;86;25731;-64
2023/10/10 13:26:22;;;;;;;4.67;2.45;;;;;;;17.32;37.08;100783.27;1652719;86;25687;-64
2023/10/10 13:28:50;;;;;;;3.10;2.50;;;;;;;17.39;37.64;100779.97;1653540;86;25501;-62
2023/10/10 13:31:24;;;;;;;5.10;2.77;;;;;;;17.59;37.83;100773.56;1653510;86;25570;-60
2023/10/10 13:33:53;;;;;;;4.28;2.75;;;;;;;17.81;38.03;100763.23;1653596;86;28028;-64
2023/10/10 13:36:20;;;;;;;3.87;2.42;;;;;;;18.26;38.10;100757.50;1653461;86;25640;-63
2023/10/10 13:38:50;;;;;;;4.97;3.35;;;;;;;18.75;37.69;100761.12;1653628;86;25597;-62
2023/10/10 13:41:22;;;;;;;;;;;;;;;18.83;37.04;100758.78;1656035;86;25867;-62
2023/10/10 13:43:52;;;;;;;3.98;2.05;;;;;;;18.83;36.95;100755.48;1653588;86;25478;-64
2023/10/10 13:46:22;;;;;;;4.53;2.35;;;;;;;19.07;37.41;100751.53;1653627;86;27706;-64
2023/10/10 13:48:48;;;;;;;3.55;2.37;;;;;;;19.32;36.57;100742.52;1653516;86;25650;-64
2023/10/10 13:51:16;;;;;;;3.30;2.52;;;;;;;19.40;36.78;100745.64;1653602;86;25430;-65
2023/10/10 13:53:44;;;;;;;12.37;10.00;;;;;;;19.68;36.82;100741.36;1653563;86;25626;-65
2023/10/10 13:56:16;;;;;;;4.90;2.27;;;;;;;19.70;35.68;100738.23;1653839;86;25657;-63
2023/10/10 13:58:46;;;;;;;3.33;1.80;;;;;;;19.47;34.92;100738.14;1653413;86;27410;-64
2023/10/10 14:01:14;;;;;;;3.72;2.30;;;;;;;19.16;35.17;100736.48;1653637;86;25767;-64
2023/10/10 14:03:45;;;;;;;4.62;2.87;;;;;;;18.96;35.49;100743.84;1653826;86;25479;-66
2023/10/10 14:06:10;;;;;;;;;;;;;;;18.81;35.69;100739.95;1655935;85;25469;-67
2023/10/10 14:08:36;;;;;;;2.35;1.95;;;;;;;18.78;36.01;100739.28;1653616;85;25509;-64
2023/10/10 14:11:04;;;;;;;3.10;2.00;;;;;;;18.77;35.74;100743.75;1653583;86;27340;-63
2023/10/10 14:13:32;;;;;;;4.33;2.15;;;;;;;18.31;35.38;100734.55;1653519;86;25607;-63
2023/10/10 14:15:59;;;;;;;3.17;2.20;;;;;;;17.77;35.62;100735.77;1653680;86;25633;-64
2023/10/10 14:18:42;;;;;;;2.52;2.00;;;;;;;17.43;36.75;100735.17;1653932;86;26346;-64
2023/10/10 14:21:08;;;;;;;2.30;1.85;;;;;;;17.31;36.94;100731.09;1653566;85;25624;-64
2023/10/10 14:23:36;;;;;;;3.62;2.00;;;;;;;17.21;37.19;100733.72;1653706;86;28136;-63
2023/10/10 14:26:13;;;;;;;4.67;2.92;;;;;;;17.09;37.74;100733.16;1653447;86;25631;-63
2023/10/10 14:28:52;;;;;;;4.58;2.92;;;;;;;17.14;38.16;100733.50;1653568;86;25470;-64
2023/10/10 14:31:24;;;;;;;3.17;2.47;;;;;;;17.18;38.65;100735.21;1653653;86;31517;-63
2023/10/10 14:33:53;;;;;;;5.17;2.77;;;;;;;17.41;38.58;100745.66;1653726;86;25451;-63
2023/10/10 14:36:21;;;;;;;5.40;3.22;;;;;;;17.39;38.34;100745.79;1742717;78;27191;-63
2023/10/10 14:38:52;;;;;;;3.20;2.35;;;;;;;17.09;38.24;100735.88;1699792;84;25716;-63
2023/10/10 14:41:22;;;;;;;5.83;3.02;;;;;;;16.83;38.72;100736.78;1699882;84;25498;-63
2023/10/10 14:43:52;;;;;;;6.60;3.20;;;;;;;16.61;38.83;100736.84;1699876;84;25624;-63
2023/10/10 14:46:24;;;;;;;7.05;3.40;;;;;;;16.34;39.39;100732.81;1699828;84;25470;-64